Vega Gamleby — SKQG — position and weather

sailwx.info

Track history (hours):
 
Tides and Currents Weather Stations Pressure Air Temp Water Temp Dewpoint Dewpoint Depression Visibility Wind Speed Wind Dir Waves Ship Positions

Vega Gamleby

Last reported at 2019-Jun-14 12:15 UTC. Time now 2019-Jun-15 22:33 UTC.
Position N 57°44' E 016°44'.

Length 31 m.

Type: Sailing vessel. MMSI: 266299000.

Date/timePositionNaut miles runAvg speedWind from/ knotsBaromVisibWave heightAir tempDewpointWater temp
2019-Jun-14 12:15N 57°44' E 016°44'2 6.1
2019-Jun-14 11:59N 57°46' E 016°43'3 6.7
2019-Jun-14 11:27N 57°48' E 016°38'2 5.1
2019-Jun-14 11:00N 57°50' E 016°35'2 3.2
2019-Jun-14 10:29N 57°48' E 016°37'2 3.8
2019-Jun-14 10:01N 57°47' E 016°40'3 3.2
2019-Jun-14 09:05N 57°45' E 016°44'1 6.2
2019-Jun-14 08:55N 57°44' E 016°44'  
2019-Jun-11 13:59N 57°44' E 016°42'1 3.0
2019-Jun-11 13:30N 57°44' E 016°44'48 2.1
2019-Jun-10 15:08N 58°32' E 016°53'1 5.8
2019-Jun-10 15:00N 58°32' E 016°53'3 5.9
2019-Jun-10 14:30N 58°35' E 016°51'3 6.4
2019-Jun-10 13:59N 58°37' E 016°45'3 6.5
2019-Jun-10 13:30N 58°38' E 016°39'2 3.7
2019-Jun-10 13:00N 58°38' E 016°36'2 3.7
2019-Jun-10 12:30N 58°39' E 016°32'1 2.4
2019-Jun-10 11:59N 58°39' E 016°30'1 2.5
2019-Jun-10 11:30N 58°39' E 016°28'1 2.9
2019-Jun-10 10:59N 58°39' E 016°25'0 0.4
2019-Jun-10 10:29N 58°39' E 016°25'2 5.1
2019-Jun-10 10:00N 58°38' E 016°21'5 6.5
2019-Jun-10 09:16N 58°36' E 016°13'  
Track history (hours):
 
Tides and Currents Weather Stations Pressure Air Temp Water Temp Dewpoint Dewpoint Depression Visibility Wind Speed Wind Dir Waves Ship Positions

Vega Gamleby

Last reported at 2019-Jun-14 12:15 UTC. Time now 2019-Jun-15 22:33 UTC.
Position N 57°44' E 016°44'.

Length 31 m.

Type: Sailing vessel. MMSI: 266299000.

Date/timePositionNaut miles runAvg speedWind from/ knotsBaromVisibWave heightAir tempDewpointWater temp
2019-Jun-14 12:15N 57°44' E 016°44'2 6.1
2019-Jun-14 11:59N 57°46' E 016°43'3 6.7
2019-Jun-14 11:27N 57°48' E 016°38'2 5.1
2019-Jun-14 11:00N 57°50' E 016°35'2 3.2
2019-Jun-14 10:29N 57°48' E 016°37'2 3.8
2019-Jun-14 10:01N 57°47' E 016°40'3 3.2
2019-Jun-14 09:05N 57°45' E 016°44'1 6.2
2019-Jun-14 08:55N 57°44' E 016°44'  
2019-Jun-11 13:59N 57°44' E 016°42'1 3.0
2019-Jun-11 13:30N 57°44' E 016°44'48 2.1
2019-Jun-10 15:08N 58°32' E 016°53'1 5.8
2019-Jun-10 15:00N 58°32' E 016°53'3 5.9
2019-Jun-10 14:30N 58°35' E 016°51'3 6.4
2019-Jun-10 13:59N 58°37' E 016°45'3 6.5
2019-Jun-10 13:30N 58°38' E 016°39'2 3.7
2019-Jun-10 13:00N 58°38' E 016°36'2 3.7
2019-Jun-10 12:30N 58°39' E 016°32'1 2.4
2019-Jun-10 11:59N 58°39' E 016°30'1 2.5
2019-Jun-10 11:30N 58°39' E 016°28'1 2.9
2019-Jun-10 10:59N 58°39' E 016°25'0 0.4
2019-Jun-10 10:29N 58°39' E 016°25'2 5.1
2019-Jun-10 10:00N 58°38' E 016°21'5 6.5
2019-Jun-10 09:16N 58°36' E 016°13'  

Dump ship's entire track history